Time;durP1;ratioP1;P1;durP2;ratioP2;P2;SDS_P1;SDS_P2;PMS_P1;PMS_P2;Temp;Humidity;BMP_temperature;BMP_pressure;BME280_temperature;BME280_humidity;BME280_pressure;Samples;Min_cycle;Max_cycle;Signal;HPM_P1;HPM_P2
2023/08/27 00:00:59;;;;;;;13.08;9.13;;;;;;;22.79;65.03;99864.87;1731565;82;21118;-66
2023/08/27 00:03:29;;;;;;;15.70;9.35;;;;;;;22.77;65.15;99867.12;1731737;81;21032;-65
2023/08/27 00:05:58;;;;;;;15.23;9.50;;;;;;;22.72;65.39;99861.54;1731678;83;21497;-65
2023/08/27 00:08:28;;;;;;;15.45;9.50;;;;;;;22.69;65.62;99857.94;1731807;83;21063;-65
2023/08/27 00:10:59;;;;;;;14.50;9.43;;;;;;;22.68;65.81;99854.87;1731571;82;21058;-67
2023/08/27 00:13:29;;;;;;;17.02;9.90;;;;;;;22.65;66.02;99849.30;1731557;83;21036;-65
2023/08/27 00:15:58;;;;;;;17.17;9.48;;;;;;;22.63;66.09;99850.16;1731479;83;21079;-64
2023/08/27 00:18:27;;;;;;;16.00;9.90;;;;;;;22.63;66.15;99846.53;1731614;83;21479;-64
2023/08/27 00:20:57;;;;;;;13.58;9.93;;;;;;;22.65;66.11;99844.28;1731460;81;21471;-65
2023/08/27 00:23:26;;;;;;;14.35;9.55;;;;;;;22.65;65.98;99848.47;1731761;82;21035;-65
2023/08/27 00:25:55;;;;;;;16.00;10.18;;;;;;;22.64;66.17;99845.41;1731937;83;21071;-65
2023/08/27 00:28:24;;;;;;;15.08;9.40;;;;;;;22.62;66.38;99847.66;1731649;83;21012;-65
2023/08/27 00:30:54;;;;;;;15.95;9.88;;;;;;;22.59;66.60;99842.65;1731671;83;21499;-65
2023/08/27 00:33:23;;;;;;;16.65;10.32;;;;;;;22.55;66.89;99849.94;1688817;83;21488;-65
2023/08/27 00:35:53;;;;;;;13.80;9.73;;;;;;;22.54;67.07;99844.09;1731617;83;21468;-66
2023/08/27 00:38:22;;;;;;;14.25;9.98;;;;;;;22.50;67.26;99851.38;1731728;83;21408;-66
2023/08/27 00:40:52;;;;;;;16.07;10.63;;;;;;;22.44;67.59;99860.34;1731608;83;21042;-68
2023/08/27 00:43:21;;;;;;;17.62;10.70;;;;;;;22.39;67.86;99856.19;1731652;81;21036;-66
2023/08/27 00:45:52;;;;;;;16.02;10.60;;;;;;;22.39;68.06;99858.42;1731677;83;21016;-66
2023/08/27 00:48:21;;;;;;;21.40;10.82;;;;;;;22.39;68.10;99859.82;1731698;82;21043;-66
2023/08/27 00:50:50;;;;;;;14.40;10.40;;;;;;;22.36;68.20;99861.79;1731699;83;21071;-66
2023/08/27 00:53:20;;;;;;;15.85;11.10;;;;;;;22.32;68.38;99866.28;1731641;83;21577;-67
2023/08/27 00:55:51;;;;;;;16.05;10.60;;;;;;;22.28;68.61;99868.55;1731541;83;21028;-66
2023/08/27 00:58:19;;;;;;;15.95;10.32;;;;;;;22.25;68.84;99872.75;1731574;83;21016;-66
2023/08/27 01:00:49;;;;;;;18.00;10.63;;;;;;;22.24;69.05;99874.42;1731657;83;21135;-66
2023/08/27 01:03:17;;;;;;;17.25;11.33;;;;;;;22.22;69.21;99878.06;1731854;83;21027;-66
2023/08/27 01:05:46;;;;;;;14.90;11.18;;;;;;;22.20;69.36;99879.75;1731706;82;21067;-65
2023/08/27 01:08:33;;;;;;;18.37;11.53;;;;;;;22.20;69.65;99880.31;1731525;83;21452;-66
2023/08/27 01:11:07;;;;;;;16.95;11.08;;;;;;;22.20;69.74;99879.75;1731494;83;21083;-66
2023/08/27 01:13:58;;;;;;;20.35;10.72;;;;;;;22.18;69.96;99877.81;1731553;83;21483;-68
2023/08/27 01:16:27;;;;;;;20.80;11.50;;;;;;;22.16;70.09;99887.59;1711386;83;21075;-66
2023/08/27 01:18:55;;;;;;;17.35;10.45;;;;;;;22.14;70.31;99880.90;1731680;83;21050;-66
2023/08/27 01:21:25;;;;;;;16.93;10.90;;;;;;;22.12;70.61;99878.95;1710977;83;21059;-66
2023/08/27 01:23:54;;;;;;;16.65;11.38;;;;;;;22.09;70.88;99882.28;1731736;83;21067;-65
2023/08/27 01:26:50;;;;;;;18.62;11.53;;;;;;;22.08;71.03;99891.78;1731812;82;21067;-65
2023/08/27 01:29:49;;;;;;;23.50;12.68;;;;;;;22.09;71.09;99883.12;1744444;82;21051;-65
2023/08/27 01:32:29;;;;;;;18.85;11.63;;;;;;;22.09;71.13;99880.33;1751531;81;21066;-66
2023/08/27 01:34:58;;;;;;;18.92;11.55;;;;;;;22.09;71.22;99876.70;1751678;82;21110;-66
2023/08/27 01:37:27;;;;;;;20.35;11.80;;;;;;;22.09;71.34;99876.70;1751741;82;21027;-66
2023/08/27 01:40:05;;;;;;;20.48;12.00;;;;;;;22.08;71.52;99874.48;1751532;82;21004;-66
2023/08/27 01:42:35;;;;;;;17.77;11.45;;;;;;;22.05;71.74;99872.27;1751282;82;21098;-65
2023/08/27 01:45:07;;;;;;;21.10;11.70;;;;;;;22.01;71.98;99868.91;1751629;82;21046;-66
2023/08/27 01:47:36;;;;;;;19.77;12.00;;;;;;;22.03;72.10;99868.09;1751801;82;21038;-66
2023/08/27 01:50:05;;;;;;;20.72;12.23;;;;;;;22.06;72.03;99870.30;1751563;82;21016;-66
2023/08/27 01:52:35;;;;;;;19.00;11.75;;;;;;;22.05;71.98;99865.84;1751662;82;21458;-66
2023/08/27 01:55:07;;;;;;;17.20;11.50;;;;;;;22.05;71.97;99861.66;1751761;82;21070;-66
2023/08/27 01:57:36;;;;;;;23.00;12.93;;;;;;;22.07;71.94;99863.04;1751798;82;21114;-65
2023/08/27 02:00:08;;;;;;;21.60;12.05;;;;;;;22.06;71.97;99859.98;1751819;82;21034;-66
2023/08/27 02:02:39;;;;;;;18.92;12.10;;;;;;;22.06;72.10;99864.16;1751173;82;21081;-66
2023/08/27 02:05:09;;;;;;;17.73;11.78;;;;;;;22.06;72.23;99864.16;1751631;82;21470;-66
2023/08/27 02:07:39;;;;;;;17.77;11.68;;;;;;;22.04;72.29;99857.20;1751635;82;21947;-68
2023/08/27 02:10:09;;;;;;;15.70;11.53;;;;;;;22.02;72.50;99864.43;1751752;82;21066;-66
2023/08/27 02:12:37;;;;;;;18.52;11.33;;;;;;;22.01;72.65;99861.37;1751569;82;21669;-66
2023/08/27 02:15:07;;;;;;;17.95;11.38;;;;;;;22.00;72.76;99855.52;1751759;82;21066;-65
2023/08/27 02:17:37;;;;;;;18.73;11.85;;;;;;;21.99;72.83;99853.84;1751557;82;21427;-65
2023/08/27 02:20:09;;;;;;;17.10;11.97;;;;;;;21.98;73.01;99855.53;1751838;82;21061;-66
2023/08/27 02:22:39;;;;;;;18.98;12.33;;;;;;;21.94;73.12;99846.06;1751713;82;21082;-67
2023/08/27 02:25:11;;;;;;;19.55;11.83;;;;;;;21.92;73.31;99848.30;1751736;82;21431;-67
2023/08/27 02:27:39;;;;;;;21.12;12.73;;;;;;;21.94;73.35;99848.85;1744756;82;21051;-66
2023/08/27 02:30:10;;;;;;;16.00;11.43;;;;;;;21.90;73.36;99858.34;1738937;82;21590;-65
2023/08/27 02:32:39;;;;;;;20.52;11.63;;;;;;;21.87;73.52;99855.30;1731728;82;21490;-67
2023/08/27 02:35:08;;;;;;;16.93;11.53;;;;;;;21.86;73.61;99850.28;1731637;83;21129;-66
2023/08/27 02:37:38;;;;;;;17.82;12.28;;;;;;;21.87;73.76;99855.30;1731906;83;21487;-66
2023/08/27 02:40:08;;;;;;;20.20;12.47;;;;;;;21.89;73.66;99853.05;1731754;83;21067;-65
2023/08/27 02:42:37;;;;;;;19.55;12.28;;;;;;;21.91;73.56;99849.42;1731550;83;21488;-66
2023/08/27 02:45:07;;;;;;;19.75;11.88;;;;;;;21.89;73.57;99856.68;1731578;83;21518;-66
2023/08/27 02:47:36;;;;;;;20.85;12.10;;;;;;;21.89;73.73;99864.22;1731702;83;21115;-66
2023/08/27 02:50:07;;;;;;;18.62;12.35;;;;;;;21.87;73.75;99862.27;1731553;82;21111;-67
2023/08/27 02:52:36;;;;;;;21.45;12.47;;;;;;;21.85;73.87;99862.56;1731598;83;21436;-66
2023/08/27 02:55:06;;;;;;;21.10;11.85;;;;;;;21.79;74.05;99857.56;1731614;83;21088;-66
2023/08/27 02:57:34;;;;;;;18.32;12.23;;;;;;;21.75;74.31;99857.02;1731558;83;21079;-66
2023/08/27 03:00:04;;;;;;;19.30;11.80;;;;;;;21.70;74.61;99861.22;1731612;83;21023;-65
2023/08/27 03:02:34;;;;;;;20.72;12.88;;;;;;;21.68;74.88;99868.48;1731869;83;21031;-67
2023/08/27 03:05:04;;;;;;;20.17;12.50;;;;;;;21.68;75.03;99864.86;1731530;82;21136;-65
2023/08/27 03:07:33;;;;;;;25.25;13.25;;;;;;;21.68;75.15;99864.86;1731774;83;21083;-65
2023/08/27 03:10:02;;;;;;;17.87;12.53;;;;;;;21.70;75.20;99858.44;1731645;81;21031;-65
2023/08/27 03:12:31;;;;;;;18.98;12.30;;;;;;;21.69;75.18;99857.59;1731681;83;21024;-65
2023/08/27 03:15:00;;;;;;;20.45;12.70;;;;;;;21.67;75.29;99863.19;1731595;83;21543;-65
2023/08/27 03:17:29;;;;;;;22.35;12.75;;;;;;;21.64;75.42;99867.94;1731505;83;21055;-64
2023/08/27 03:19:59;;;;;;;19.52;12.58;;;;;;;21.61;75.67;99870.73;1731791;83;21035;-65
2023/08/27 03:22:28;;;;;;;22.52;14.10;;;;;;;21.60;75.81;99882.16;1731815;82;21024;-66
2023/08/27 03:25:00;;;;;;;34.63;26.27;;;;;;;21.60;75.89;99878.82;1731574;83;21055;-66
2023/08/27 03:27:29;;;;;;;24.63;18.15;;;;;;;21.60;76.12;99886.34;1731704;82;21083;-65
2023/08/27 03:29:58;;;;;;;30.80;20.90;;;;;;;21.56;76.31;99867.12;1731586;83;21043;-64
2023/08/27 03:32:28;;;;;;;30.37;21.93;;;;;;;21.53;76.54;99864.34;1743873;82;21142;-65
2023/08/27 03:34:58;;;;;;;42.15;32.80;;;;;;;21.53;76.67;99867.12;1746423;82;21458;-63
2023/08/27 03:37:26;;;;;;;25.30;17.35;;;;;;;21.56;76.75;99876.32;1746176;82;21078;-64
2023/08/27 03:39:56;;;;;;;26.07;17.77;;;;;;;21.61;76.80;99876.86;1745966;82;21043;-65
2023/08/27 03:42:24;;;;;;;23.83;17.17;;;;;;;21.64;76.81;99876.30;1746266;82;21418;-65
2023/08/27 03:44:54;;;;;;;27.22;19.60;;;;;;;21.63;76.81;99877.42;1746223;82;21149;-64
2023/08/27 03:47:23;;;;;;;31.70;22.82;;;;;;;21.64;76.86;99877.69;1746012;82;21125;-65
2023/08/27 03:49:54;;;;;;;33.30;23.52;;;;;;;21.64;76.89;99886.05;1746045;82;21047;-65
2023/08/27 03:52:24;;;;;;;32.33;19.92;;;;;;;21.67;76.95;99882.70;1746238;82;21034;-64
2023/08/27 03:54:53;;;;;;;34.40;22.35;;;;;;;21.70;76.89;99879.34;1746232;82;21674;-65
2023/08/27 03:57:22;;;;;;;30.17;21.35;;;;;;;21.74;76.78;99886.86;1746187;82;21103;-65
2023/08/27 03:59:51;;;;;;;32.23;21.30;;;;;;;21.76;76.85;99881.00;1745780;82;21527;-65
2023/08/27 04:02:20;;;;;;;31.65;20.90;;;;;;;;;;1746313;81;21136;-65
2023/08/27 04:04:50;;;;;;;29.70;20.70;;;;;;;21.79;76.95;99886.01;1746209;81;21733;-64
2023/08/27 04:07:18;;;;;;;28.12;19.70;;;;;;;21.83;76.97;99898.27;1745999;82;21471;-65
2023/08/27 04:09:48;;;;;;;26.25;17.32;;;;;;;21.89;76.72;99900.48;1746471;82;21022;-65
2023/08/27 04:12:18;;;;;;;25.88;17.07;;;;;;;21.93;76.43;99903.81;1745980;82;21114;-64
2023/08/27 04:14:47;;;;;;;26.25;17.32;;;;;;;21.97;76.21;99904.91;1746056;82;21074;-64
2023/08/27 04:17:16;;;;;;;25.92;17.10;;;;;;;21.98;76.11;99899.60;1745778;82;21489;-64
2023/08/27 04:19:44;;;;;;;26.20;17.00;;;;;;;22.00;76.11;99893.17;1746378;82;21062;-65
2023/08/27 04:22:15;;;;;;;28.15;16.60;;;;;;;22.02;76.16;99895.68;1725542;82;21479;-66
2023/08/27 04:24:43;;;;;;;25.82;16.87;;;;;;;22.04;76.22;99897.09;1745644;82;21087;-66
2023/08/27 04:27:12;;;;;;;23.70;16.12;;;;;;;22.08;76.21;99889.82;1746140;82;21031;-63
2023/08/27 04:29:41;;;;;;;24.20;16.52;;;;;;;22.12;76.27;99892.91;1746272;82;21509;-65
2023/08/27 04:32:10;;;;;;;26.05;17.23;;;;;;;22.14;76.25;99893.45;1746100;82;21002;-66
2023/08/27 04:34:39;;;;;;;26.40;17.50;;;;;;;22.19;76.15;99886.45;1746472;82;21062;-66
2023/08/27 04:37:09;;;;;;;28.85;17.77;;;;;;;22.26;75.82;99896.73;1746189;82;21090;-65
2023/08/27 04:39:38;;;;;;;29.27;17.90;;;;;;;22.29;75.47;99893.38;1746110;82;21067;-64
2023/08/27 04:42:08;;;;;;;27.67;18.82;;;;;;;22.35;75.23;99896.97;1745951;82;21043;-65
2023/08/27 04:44:36;;;;;;;28.92;19.10;;;;;;;22.40;75.02;99894.16;1745829;82;21027;-67
2023/08/27 04:47:05;;;;;;;29.02;18.17;;;;;;;22.44;74.75;99887.70;1745634;82;21097;-64
2023/08/27 04:49:34;;;;;;;27.60;17.45;;;;;;;22.52;74.44;99895.20;1746028;82;21014;-65
2023/08/27 04:52:05;;;;;;;26.00;17.55;;;;;;;22.58;74.28;99894.04;1746418;82;21011;-65
2023/08/27 04:54:36;;;;;;;27.75;17.27;;;;;;;22.66;74.03;99893.42;1744151;82;21015;-65
2023/08/27 04:57:05;;;;;;;26.33;17.12;;;;;;;22.73;73.76;99889.74;1745385;82;21198;-65
2023/08/27 04:59:34;;;;;;;26.65;17.05;;;;;;;22.81;73.50;99886.95;1746251;82;21208;-65
2023/08/27 05:02:03;;;;;;;26.10;17.75;;;;;;;22.89;73.22;99886.33;1746347;82;21117;-65
2023/08/27 05:04:32;;;;;;;27.80;17.50;;;;;;;22.96;73.01;99886.27;1745530;82;21051;-65
2023/08/27 05:07:01;;;;;;;25.37;17.35;;;;;;;23.04;72.91;99883.41;1746196;82;21050;-64
2023/08/27 05:09:31;;;;;;;27.07;16.87;;;;;;;23.12;72.70;99878.59;1746424;82;21022;-64
2023/08/27 05:12:00;;;;;;;23.83;16.57;;;;;;;23.19;72.48;99874.89;1746265;82;21054;-66
2023/08/27 05:14:29;;;;;;;30.48;17.75;;;;;;;23.24;72.30;99879.59;1746491;82;21015;-66
2023/08/27 05:16:58;;;;;;;26.45;15.85;;;;;;;23.28;72.22;99885.70;1746440;82;21066;-65
2023/08/27 05:19:26;;;;;;;23.98;16.15;;;;;;;23.33;72.11;99886.22;1745583;82;21047;-64
2023/08/27 05:21:55;;;;;;;24.23;15.72;;;;;;;23.37;72.04;99885.89;1746491;81;21490;-64
2023/08/27 05:24:23;;;;;;;24.00;16.02;;;;;;;23.45;71.82;99878.30;1745979;82;21559;-65
2023/08/27 05:26:52;;;;;;;24.52;15.70;;;;;;;23.51;71.64;99874.31;1746511;82;21071;-66
2023/08/27 05:29:22;;;;;;;22.93;15.40;;;;;;;23.56;71.41;99878.48;1746439;82;21051;-65
2023/08/27 05:31:51;;;;;;;22.22;16.10;;;;;;;23.63;71.20;99879.53;1745896;82;21540;-65
2023/08/27 05:34:20;;;;;;;25.27;15.03;;;;;;;23.70;70.97;99872.45;1746536;81;21360;-66
2023/08/27 05:36:49;;;;;;;17.98;13.98;;;;;;;23.79;70.89;99875.42;1746212;82;21078;-65
2023/08/27 05:39:18;;;;;;;20.70;13.60;;;;;;;23.87;70.87;99879.53;1746376;82;21038;-65
2023/08/27 05:41:47;;;;;;;21.40;14.87;;;;;;;23.93;70.79;99879.17;1746288;82;21019;-65
2023/08/27 05:44:17;;;;;;;20.95;13.85;;;;;;;24.00;70.68;99869.01;1746313;82;21454;-64
2023/08/27 05:46:46;;;;;;;22.73;14.25;;;;;;;24.07;70.54;99873.70;1746443;82;21022;-66
2023/08/27 05:49:15;;;;;;;20.77;14.28;;;;;;;24.13;70.41;99865.50;1746107;82;21508;-65
2023/08/27 05:51:46;;;;;;;19.55;14.10;;;;;;;24.21;70.21;99864.00;1746475;82;21030;-65
2023/08/27 05:54:15;;;;;;;20.75;12.13;;;;;;;24.26;70.16;99862.53;1746341;82;21516;-65
2023/08/27 05:56:45;;;;;;;16.07;11.60;;;;;;;24.30;69.88;99851.85;1746176;82;21023;-64
2023/08/27 05:59:15;;;;;;;15.63;11.93;;;;;;;24.38;69.53;99855.94;1745667;82;21066;-64
2023/08/27 06:01:43;;;;;;;18.37;11.75;;;;;;;24.48;69.20;99850.76;1746248;81;21081;-66
2023/08/27 06:04:14;;;;;;;18.48;11.20;;;;;;;24.55;68.82;99842.80;1746150;82;21066;-65
2023/08/27 06:06:43;;;;;;;17.73;11.60;;;;;;;24.64;68.66;99851.62;1746464;82;21078;-66
2023/08/27 06:09:12;;;;;;;14.83;11.33;;;;;;;24.73;68.28;99853.19;1746534;82;21054;-66
2023/08/27 06:11:41;;;;;;;13.83;11.05;;;;;;;24.82;68.12;99850.53;1731953;82;21102;-65
2023/08/27 06:14:10;;;;;;;16.85;10.68;;;;;;;24.87;68.06;99839.23;1729460;83;21019;-66
2023/08/27 06:16:42;;;;;;;16.30;10.80;;;;;;;24.95;67.88;99844.14;1746156;82;21031;-65
2023/08/27 06:19:11;;;;;;;13.45;10.10;;;;;;;25.02;67.68;99837.59;1746460;82;21074;-65
2023/08/27 06:21:39;;;;;;;15.60;10.80;;;;;;;25.10;67.41;99838.30;1746496;82;21055;-65
2023/08/27 06:24:08;;;;;;;20.43;11.48;;;;;;;25.17;67.29;99837.89;1746456;82;21082;-65
2023/08/27 06:26:37;;;;;;;17.42;10.72;;;;;;;25.26;67.13;99837.44;1746256;82;21038;-67
2023/08/27 06:29:06;;;;;;;15.25;10.50;;;;;;;25.31;67.00;99833.14;1742310;82;21090;-65
2023/08/27 06:31:35;;;;;;;15.13;10.90;;;;;;;25.38;66.73;99829.96;1738861;82;21054;-66
2023/08/27 06:34:06;;;;;;;12.45;9.88;;;;;;;25.43;66.13;99831.27;1739131;82;21027;-64
2023/08/27 06:36:36;;;;;;;16.65;10.68;;;;;;;25.51;65.55;99834.18;1739101;82;21054;-65
2023/08/27 06:39:05;;;;;;;15.80;10.28;;;;;;;25.59;65.20;99836.84;1738856;82;21537;-65
2023/08/27 06:41:34;;;;;;;15.45;9.95;;;;;;;25.65;65.16;99828.58;1738833;82;21062;-65
2023/08/27 06:44:05;;;;;;;14.53;9.70;;;;;;;25.71;65.13;99835.78;1738592;82;21034;-66
2023/08/27 06:46:36;;;;;;;14.05;8.98;;;;;;;25.78;65.14;99836.77;1739077;82;21055;-65
2023/08/27 06:49:06;;;;;;;14.40;9.90;;;;;;;25.84;64.98;99836.34;1739029;81;21003;-66
2023/08/27 06:51:35;;;;;;;13.75;9.60;;;;;;;25.91;64.28;99835.92;1738977;82;21015;-65
2023/08/27 06:54:04;;;;;;;13.13;9.90;;;;;;;25.98;63.69;99837.73;1738888;82;21094;-66
2023/08/27 06:56:33;;;;;;;13.28;9.35;;;;;;;26.06;63.18;99832.81;1738917;82;21543;-66
2023/08/27 06:59:01;;;;;;;15.30;9.80;;;;;;;26.13;62.68;99831.81;1739057;82;21081;-66
2023/08/27 07:01:30;;;;;;;11.88;9.53;;;;;;;26.26;62.61;99830.69;1738893;82;21071;-65
2023/08/27 07:04:00;;;;;;;12.80;9.70;;;;;;;26.50;61.68;99831.28;1738869;82;21051;-65
2023/08/27 07:06:29;;;;;;;14.50;9.55;;;;;;;26.87;61.18;99825.89;1738872;81;21090;-65
2023/08/27 07:08:59;;;;;;;13.40;9.63;;;;;;;27.29;59.71;99820.88;1721058;82;21067;-65
2023/08/27 07:11:27;;;;;;;15.38;10.03;;;;;;;27.78;58.20;99823.47;1738896;82;21079;-64
2023/08/27 07:14:06;;;;;;;16.42;9.93;;;;;;;28.73;55.98;99826.50;1738852;82;21035;-64
2023/08/27 07:16:35;;;;;;;12.75;9.25;;;;;;;28.73;55.98;99826.50;1738895;82;21071;-66
2023/08/27 07:19:05;;;;;;;15.58;9.40;;;;;;;29.29;53.57;99829.45;1739090;82;21134;-66
2023/08/27 07:21:34;;;;;;;14.75;9.93;;;;;;;29.74;52.91;99840.27;1738887;82;21490;-65
2023/08/27 07:24:03;;;;;;;14.80;10.00;;;;;;;30.19;51.13;99834.92;1736778;82;21015;-66
2023/08/27 07:26:33;;;;;;;11.65;9.00;;;;;;;30.58;50.30;99833.67;1736672;82;21051;-65
2023/08/27 07:29:01;;;;;;;16.10;10.48;;;;;;;30.86;49.38;99833.36;1737504;82;21493;-65
2023/08/27 07:31:31;;;;;;;15.25;10.88;;;;;;;31.14;48.18;99835.00;1738855;82;21031;-66
2023/08/27 07:34:02;;;;;;;16.35;10.72;;;;;;;31.31;47.87;99832.63;1748313;82;21110;-65
2023/08/27 07:36:31;;;;;;;15.83;10.88;;;;;;;31.53;46.90;99838.45;1728416;82;21098;-64
2023/08/27 07:39:00;;;;;;;14.70;10.15;;;;;;;31.63;47.06;99839.41;1748709;82;21086;-65
2023/08/27 07:41:30;;;;;;;13.95;10.05;;;;;;;31.76;45.85;99837.44;1748638;82;21501;-65
2023/08/27 07:43:59;;;;;;;15.30;9.70;;;;;;;31.93;46.10;99840.67;1748871;82;21034;-65
2023/08/27 07:46:30;;;;;;;12.58;9.83;;;;;;;32.10;45.87;99838.41;1748821;82;21487;-65
2023/08/27 07:48:58;;;;;;;13.55;9.68;;;;;;;32.38;45.02;99836.28;1748960;82;21050;-65
2023/08/27 07:51:28;;;;;;;14.30;9.78;;;;;;;32.65;43.95;99842.62;1755174;81;21495;-66
2023/08/27 07:53:57;;;;;;;15.28;9.40;;;;;;;32.89;43.57;99845.99;1749906;80;21443;-66
2023/08/27 07:56:25;;;;;;;11.57;9.18;;;;;;;33.08;43.31;99846.14;1740575;82;21462;-65
2023/08/27 07:58:54;;;;;;;33.23;11.00;;;;;;;33.31;42.75;99842.77;1739878;82;21031;-64
2023/08/27 08:01:29;;;;;;;12.45;8.23;;;;;;;33.56;42.78;99844.27;1829333;77;22117;-65
2023/08/27 08:03:58;;;;;;;11.38;7.90;;;;;;;33.77;41.72;99844.59;1762864;80;21137;-61
2023/08/27 08:06:27;;;;;;;9.58;6.95;;;;;;;34.03;40.06;99837.20;1791534;80;21137;-60
2023/08/27 08:08:56;;;;;;;9.50;6.90;;;;;;;34.19;39.52;99840.62;1791401;80;21164;-63
2023/08/27 08:11:25;;;;;;;13.20;7.22;;;;;;;34.36;39.13;99834.55;1769033;80;21143;-62
2023/08/27 08:13:55;;;;;;;10.50;7.87;;;;;;;34.53;38.06;99831.91;1757531;81;21107;-61
2023/08/27 08:16:25;;;;;;;9.40;7.50;;;;;;;34.51;38.23;99843.66;1757531;82;21112;-62
2023/08/27 08:18:55;;;;;;;13.83;8.83;;;;;;;34.44;38.58;99833.52;1757429;81;21142;-64
2023/08/27 08:21:24;;;;;;;11.43;8.13;;;;;;;34.36;38.53;99833.13;1757454;80;21111;-62
2023/08/27 08:23:53;;;;;;;12.18;8.75;;;;;;;34.33;38.76;99832.45;1757457;82;21119;-61
2023/08/27 08:26:23;;;;;;;9.18;7.53;;;;;;;34.34;38.56;99836.34;1757306;82;21104;-61
2023/08/27 08:28:52;;;;;;;12.47;7.95;;;;;;;34.47;37.95;99832.80;1782556;80;21134;-62
2023/08/27 08:31:21;;;;;;;11.00;7.72;;;;;;;34.60;37.78;99837.16;1788414;80;21130;-61
2023/08/27 08:33:50;;;;;;;13.68;8.18;;;;;;;34.75;37.53;99832.59;1788611;80;21166;-60
2023/08/27 08:36:20;;;;;;;13.18;8.75;;;;;;;34.82;37.47;99831.36;1788581;80;21142;-62
2023/08/27 08:38:49;;;;;;;13.85;8.83;;;;;;;34.81;37.52;99830.28;1788696;80;21188;-61
2023/08/27 08:41:21;;;;;;;14.70;8.05;;;;;;;34.83;37.54;99826.48;1788317;80;21553;-61
2023/08/27 08:43:59;;;;;;;11.88;8.33;;;;;;;34.80;37.38;99821.52;1744960;80;21127;-60
2023/08/27 08:46:31;;;;;;;10.38;8.43;;;;;;;34.65;37.43;99827.50;1788436;80;21142;-60
2023/08/27 08:49:01;;;;;;;10.30;7.50;;;;;;;34.38;37.74;99827.06;1788413;80;21119;-62
2023/08/27 08:51:29;;;;;;;12.33;7.92;;;;;;;34.10;38.14;99819.48;1788591;80;21122;-61
2023/08/27 08:54:05;;;;;;;14.33;9.50;;;;;;;33.83;38.89;99817.61;1788471;80;21111;-61
2023/08/27 08:56:40;;;;;;;15.90;8.28;;;;;;;33.72;39.49;99822.95;1788351;80;21616;-62
2023/08/27 08:59:10;;;;;;;11.78;8.55;;;;;;;33.74;39.47;99827.67;1788715;79;21146;-62
2023/08/27 09:01:39;;;;;;;11.97;8.10;;;;;;;33.79;39.31;99820.89;1781015;80;21133;-61
2023/08/27 09:04:08;;;;;;;11.15;8.20;;;;;;;33.83;39.48;99822.70;1730261;81;21658;-61
2023/08/27 09:06:37;;;;;;;13.85;8.78;;;;;;;33.79;39.31;99816.03;1757719;80;21121;-64
2023/08/27 09:09:07;;;;;;;8.55;7.40;;;;;;;33.63;39.39;99820.30;1757682;81;21097;-63
2023/08/27 09:11:37;;;;;;;13.83;7.95;;;;;;;33.48;39.75;99818.28;1757251;80;21133;-62
2023/08/27 09:14:05;;;;;;;10.45;7.67;;;;;;;33.43;39.95;99814.89;1757173;80;21121;-60
2023/08/27 09:16:35;;;;;;;10.20;6.80;;;;;;;33.37;40.00;99823.67;1757010;82;21097;-62
2023/08/27 09:19:04;;;;;;;8.48;6.75;;;;;;;33.24;39.42;99819.23;1756985;82;21634;-61
2023/08/27 09:21:34;;;;;;;12.78;6.53;;;;;;;33.10;39.53;99822.47;1757226;82;21098;-62
2023/08/27 09:24:05;;;;;;;9.38;7.28;;;;;;;33.00;39.50;99812.23;1729952;80;21549;-59
2023/08/27 09:26:34;;;;;;;10.13;7.12;;;;;;;32.89;39.58;99808.27;1757039;82;21109;-62
2023/08/27 09:29:05;;;;;;;8.88;6.75;;;;;;;32.79;39.94;99805.36;1757109;80;21166;-61
2023/08/27 09:31:42;;;;;;;11.50;6.60;;;;;;;32.75;40.13;99809.48;1757254;82;21117;-60
2023/08/27 09:34:12;;;;;;;10.68;6.85;;;;;;;32.68;39.60;99808.45;1757114;82;21117;-60
2023/08/27 09:36:41;;;;;;;9.30;7.12;;;;;;;32.59;39.46;99812.84;1729052;82;21533;-61
2023/08/27 09:39:12;;;;;;;9.38;6.15;;;;;;;32.53;39.74;99819.96;1757067;82;21181;-61
2023/08/27 09:41:44;;;;;;;9.73;6.40;;;;;;;32.48;39.19;99808.24;1757111;80;21117;-61
2023/08/27 09:44:14;;;;;;;9.05;6.35;;;;;;;32.46;39.18;99806.36;1757059;80;21609;-61
2023/08/27 09:46:42;;;;;;;8.20;6.20;;;;;;;32.40;38.87;99802.13;1729062;82;21109;-62
2023/08/27 09:49:11;;;;;;;9.85;6.70;;;;;;;32.37;38.88;99805.67;1757125;82;21149;-60
2023/08/27 09:51:41;;;;;;;9.90;6.42;;;;;;;32.31;39.23;99807.11;1757168;82;21568;-61
2023/08/27 09:54:19;;;;;;;8.68;6.50;;;;;;;32.30;39.39;99808.29;1757286;82;21094;-61
2023/08/27 09:56:50;;;;;;;10.82;6.83;;;;;;;32.32;39.49;99807.34;1756937;82;21142;-61
2023/08/27 09:59:19;;;;;;;9.28;6.50;;;;;;;32.34;39.67;99804.97;1756955;81;21122;-63
2023/08/27 10:01:49;;;;;;;9.20;6.67;;;;;;;32.35;39.58;99805.20;1739705;82;21123;-62
2023/08/27 10:04:20;;;;;;;8.73;6.28;;;;;;;32.30;39.87;99802.62;1743728;82;21395;-60
2023/08/27 10:06:49;;;;;;;9.25;6.25;;;;;;;32.22;39.48;99808.39;1743869;81;21100;-60
2023/08/27 10:09:18;;;;;;;10.23;6.58;;;;;;;32.14;39.39;99803.09;1743598;82;21151;-60
2023/08/27 10:11:47;;;;;;;7.55;5.90;;;;;;;32.10;39.66;99807.82;1743998;82;21092;-61
2023/08/27 10:14:16;;;;;;;8.93;6.42;;;;;;;32.15;39.46;99809.00;1743935;82;21163;-60
2023/08/27 10:16:46;;;;;;;10.08;6.28;;;;;;;32.19;39.21;99807.10;1743727;82;21092;-62
2023/08/27 10:19:17;;;;;;;9.48;6.50;;;;;;;32.20;38.97;99810.17;1743660;81;21637;-61
2023/08/27 10:21:46;;;;;;;7.42;6.08;;;;;;;32.19;38.96;99808.52;1743766;81;21088;-60
2023/08/27 10:24:15;;;;;;;9.20;6.28;;;;;;;32.15;39.12;99808.41;1673330;85;21158;-60
2023/08/27 10:26:46;;;;;;;6.92;5.92;;;;;;;32.16;38.93;99797.89;1673509;86;21194;-61
2023/08/27 10:29:16;;;;;;;8.30;6.15;;;;;;;32.13;38.93;99791.52;1673596;85;21198;-59
2023/08/27 10:31:46;;;;;;;7.53;5.62;;;;;;;32.10;38.88;99785.14;1673496;85;21162;-61
2023/08/27 10:34:15;;;;;;;26.23;23.60;;;;;;;32.09;38.80;99788.57;1673796;86;21162;-61
2023/08/27 10:36:44;;;;;;;10.20;7.37;;;;;;;32.10;38.66;99787.98;1673421;86;21122;-61
2023/08/27 10:39:15;;;;;;;8.20;5.85;;;;;;;32.10;38.59;99786.56;1673686;86;21166;-61
2023/08/27 10:41:44;;;;;;;8.60;5.35;;;;;;;32.07;38.61;99787.28;1689065;82;21143;-62
2023/08/27 10:44:19;;;;;;;10.72;6.97;;;;;;;32.09;38.65;99789.16;1743845;82;21151;-61
2023/08/27 10:47:12;;;;;;;10.05;5.75;;;;;;;32.14;38.90;99785.49;1743831;82;21590;-64
2023/08/27 10:49:42;;;;;;;7.58;4.75;;;;;;;32.22;38.56;99785.72;1743746;82;21155;-61
2023/08/27 10:52:16;;;;;;;5.60;4.80;;;;;;;32.25;38.26;99781.60;1733575;82;21158;-61
2023/08/27 10:54:46;;;;;;;7.75;4.83;;;;;;;32.23;38.00;99776.84;1743844;82;21139;-61
2023/08/27 10:57:23;;;;;;;8.45;4.65;;;;;;;32.22;37.93;99766.69;1743591;82;21214;-60
2023/08/27 10:59:55;;;;;;;6.25;4.17;;;;;;;32.23;37.80;99771.77;1743783;81;21155;-61
2023/08/27 11:02:24;;;;;;;6.28;4.45;;;;;;;32.20;37.83;99764.80;1745170;80;21308;-60
2023/08/27 11:04:54;;;;;;;4.85;4.33;;;;;;;32.20;37.94;99755.48;1785486;80;21157;-62
2023/08/27 11:07:24;;;;;;;6.25;4.45;;;;;;;32.22;37.66;99752.52;1785700;79;21530;-62
2023/08/27 11:09:58;;;;;;;7.80;4.17;;;;;;;32.26;37.65;99756.31;1785591;80;21138;-61
2023/08/27 11:12:29;;;;;;;4.37;3.90;;;;;;;32.26;37.33;99744.98;1785526;80;21126;-61
2023/08/27 11:15:14;;;;;;;8.50;4.28;;;;;;;32.25;37.01;99746.16;1757680;80;21165;-61
2023/08/27 11:17:45;;;;;;;6.33;4.22;;;;;;;32.23;37.01;99744.84;1785504;80;21577;-61
2023/08/27 11:20:26;;;;;;;5.45;3.67;;;;;;;32.20;37.03;99746.38;1733788;80;21094;-61
2023/08/27 11:23:02;;;;;;;6.90;4.10;;;;;;;32.19;37.07;99739.06;1774670;80;21146;-61
2023/08/27 11:25:31;;;;;;;5.50;3.60;;;;;;;32.18;36.83;99744.50;1759125;80;21158;-61
2023/08/27 11:28:00;;;;;;;5.08;3.60;;;;;;;32.17;36.83;99742.84;1779728;80;21559;-61
2023/08/27 11:30:32;;;;;;;4.72;3.60;;;;;;;32.18;36.86;99737.41;1777138;79;21115;-61
2023/08/27 11:33:02;;;;;;;6.72;3.95;;;;;;;32.20;36.38;99737.88;1751753;82;21160;-60
2023/08/27 11:35:32;;;;;;;6.08;3.87;;;;;;;32.23;36.20;99739.17;1715883;82;21122;-60